Time;durP1;ratioP1;P1;durP2;ratioP2;P2;SDS_P1;SDS_P2;PMS_P1;PMS_P2;Temp;Humidity;BMP_temperature;BMP_pressure;BME280_temperature;BME280_humidity;BME280_pressure;Samples;Min_cycle;Max_cycle;Signal;HPM_P1;HPM_P2
2022/02/20 00:01:54;;;;;;;25.10;11.30;;;;;;;4.92;43.25;98975.48;231481;1230;138867;-59
2022/02/20 00:06:56;;;;;;;28.30;11.20;;;;;;;4.89;43.40;98977.39;231415;1228;139134;-58
2022/02/20 00:12:00;;;;;;;29.70;11.70;;;;;;;4.79;43.52;98976.38;231318;1230;139862;-57
2022/02/20 00:17:03;;;;;;;25.70;11.00;;;;;;;4.65;43.69;98980.09;231448;1228;139932;-59
2022/02/20 00:22:06;;;;;;;29.80;12.00;;;;;;;4.48;43.72;98976.17;231341;1229;138907;-60
2022/02/20 00:27:09;;;;;;;29.50;13.00;;;;;;;4.30;44.00;98977.58;231332;1229;138769;-60
2022/02/20 00:32:12;;;;;;;30.40;12.10;;;;;;;4.15;44.22;98974.79;231322;1229;139263;-60
2022/02/20 00:37:16;;;;;;;32.80;12.70;;;;;;;4.13;44.68;98969.94;231310;1229;138574;-60
2022/02/20 00:42:20;;;;;;;30.60;12.10;;;;;;;4.12;44.83;98956.13;231265;1229;139131;-59
2022/02/20 00:47:23;;;;;;;29.70;13.20;;;;;;;4.01;44.98;98951.06;231421;1229;139171;-59
2022/02/20 00:52:26;;;;;;;33.50;12.40;;;;;;;3.95;45.02;98941.98;231354;1228;138393;-59
2022/02/20 00:57:29;;;;;;;42.90;12.80;;;;;;;3.84;45.48;98941.85;231325;1228;138769;-60
2022/02/20 01:02:33;;;;;;;31.20;13.10;;;;;;;3.78;45.63;98942.08;231097;1230;139120;-59
2022/02/20 01:07:36;;;;;;;27.20;11.80;;;;;;;3.70;45.80;98937.30;231256;1230;139177;-58
2022/02/20 01:12:40;;;;;;;31.70;12.60;;;;;;;3.60;46.01;98931.16;231320;1229;138663;-59
2022/02/20 01:17:44;;;;;;;34.00;12.40;;;;;;;3.52;46.39;98928.79;231313;1228;138925;-60
2022/02/20 01:22:47;;;;;;;31.30;12.30;;;;;;;3.47;46.51;98926.85;231400;1229;139318;-59
2022/02/20 01:27:51;;;;;;;29.00;13.30;;;;;;;3.41;46.68;98923.94;231279;1230;139079;-57
2022/02/20 01:32:54;;;;;;;28.80;12.60;;;;;;;3.34;46.76;98915.20;231291;1230;233145;-58
2022/02/20 01:37:58;;;;;;;33.40;12.40;;;;;;;3.28;47.02;98902.80;231312;1230;139689;-59
2022/02/20 01:43:04;;;;;;;33.40;12.90;;;;;;;3.21;47.18;98894.09;231301;1230;138789;-60
2022/02/20 01:48:07;;;;;;;24.50;10.50;;;;;;;3.18;47.23;98886.14;231249;1228;138513;-60
2022/02/20 01:53:11;;;;;;;26.40;10.70;;;;;;;3.27;47.15;98872.52;231390;1230;138585;-60
2022/02/20 01:58:14;;;;;;;24.70;11.20;;;;;;;3.40;47.33;98863.46;231314;1229;138656;-56
2022/02/20 02:03:37;;;;;;;30.80;10.90;;;;;;;3.54;47.15;98851.57;231241;1229;139481;-60
2022/02/20 02:08:50;;;;;;;19.70;9.20;;;;;;;3.66;46.80;98841.30;231360;1228;138788;-59
2022/02/20 02:14:11;;;;;;;23.70;10.60;;;;;;;3.76;47.05;98829.50;231297;1230;138802;-59
2022/02/20 02:19:37;;;;;;;27.30;11.20;;;;;;;3.71;47.15;98827.58;231334;1229;138596;-58
2022/02/20 02:25:07;;;;;;;30.30;12.00;;;;;;;3.57;47.45;98818.98;231296;1230;138430;-59
2022/02/20 02:30:28;;;;;;;33.60;13.10;;;;;;;3.42;47.61;98816.05;231269;1229;138927;-59
2022/02/20 02:35:32;;;;;;;26.50;11.60;;;;;;;3.28;47.97;98815.31;231392;1228;141305;-59
2022/02/20 02:40:35;;;;;;;32.10;11.70;;;;;;;3.16;48.17;98816.98;231263;1229;138854;-60
2022/02/20 02:45:38;;;;;;;24.90;11.70;;;;;;;3.08;48.24;98813.76;231285;1230;138524;-59
2022/02/20 02:50:41;;;;;;;34.70;12.20;;;;;;;2.96;48.70;98807.70;231294;1229;138767;-60
2022/02/20 02:55:51;;;;;;;24.50;10.30;;;;;;;2.87;48.74;98810.46;231296;1229;139184;-60
2022/02/20 03:00:56;;;;;;;28.60;11.50;;;;;;;2.79;49.14;98803.71;231312;1228;138863;-59
2022/02/20 03:06:00;;;;;;;30.00;11.80;;;;;;;2.74;49.36;98794.96;230970;1229;139184;-59
2022/02/20 03:11:04;;;;;;;29.10;11.70;;;;;;;2.72;49.50;98775.61;231461;1229;139047;-59
2022/02/20 03:16:09;;;;;;;27.50;11.10;;;;;;;2.67;49.62;98772.27;230996;1229;138992;-57
2022/02/20 03:21:15;;;;;;;28.20;10.70;;;;;;;2.60;50.11;98752.90;231262;1228;138621;-59
2022/02/20 03:26:18;;;;;;;28.00;11.20;;;;;;;2.55;50.09;98739.40;231283;1230;138885;-59
2022/02/20 03:31:22;;;;;;;34.30;12.60;;;;;;;2.51;50.37;98726.06;231188;1229;139733;-60
2022/02/20 03:36:25;;;;;;;29.40;12.00;;;;;;;2.53;50.32;98721.43;231202;1229;139472;-58
2022/02/20 03:41:28;;;;;;;31.70;11.90;;;;;;;2.57;50.71;98713.58;231276;1228;139319;-58
2022/02/20 03:46:32;;;;;;;35.10;12.90;;;;;;;2.58;50.82;98705.66;231232;1229;138892;-58
2022/02/20 03:51:37;;;;;;;34.10;13.80;;;;;;;2.59;51.04;98702.15;231295;1229;138806;-58
2022/02/20 03:56:40;;;;;;;27.80;12.40;;;;;;;2.59;51.21;98702.15;231224;1228;139175;-58
2022/02/20 04:01:58;;;;;;;27.30;12.00;;;;;;;2.60;51.17;98699.65;230990;1228;138775;-59
2022/02/20 04:07:02;;;;;;;31.10;11.60;;;;;;;2.62;51.24;98698.90;231220;1228;139031;-59
2022/02/20 04:12:05;;;;;;;28.40;12.10;;;;;;;2.65;51.29;98686.37;231090;1228;139536;-59
2022/02/20 04:17:11;;;;;;;32.70;12.50;;;;;;;2.66;51.63;98673.89;231413;1229;138988;-57
2022/02/20 04:22:17;;;;;;;28.50;12.40;;;;;;;2.66;51.81;98666.36;231329;1229;138769;-60
2022/02/20 04:27:20;;;;;;;27.70;12.40;;;;;;;2.65;51.80;98651.15;231300;1229;138585;-60
2022/02/20 04:32:25;;;;;;;32.00;13.80;;;;;;;2.64;51.85;98644.55;230797;1229;138969;-57
2022/02/20 04:37:32;;;;;;;27.20;11.50;;;;;;;2.65;52.05;98628.92;231232;1229;138667;-59
2022/02/20 04:42:36;;;;;;;32.90;13.60;;;;;;;2.67;52.07;98621.47;231268;1228;139037;-58
2022/02/20 04:47:43;;;;;;;20.90;9.40;;;;;;;2.69;52.07;98615.42;231074;1229;138582;-56
2022/02/20 04:52:49;;;;;;;13.30;4.00;;;;;;;2.82;51.49;98605.34;231431;1228;138713;-60
2022/02/20 04:58:10;;;;;;;9.80;2.90;;;;;;;3.07;50.76;98599.64;230998;1229;139609;-57
2022/02/20 05:03:14;;;;;;;6.00;2.50;;;;;;;3.34;50.28;98588.59;231294;1229;139517;-57
2022/02/20 05:08:36;;;;;;;5.30;1.90;;;;;;;3.59;49.48;98582.48;231233;1228;138649;-58
2022/02/20 05:13:41;;;;;;;4.90;1.90;;;;;;;3.81;49.03;98572.78;231322;1228;138640;-57
2022/02/20 05:18:44;;;;;;;7.60;1.70;;;;;;;4.01;48.70;98562.46;230878;1228;138688;-58
2022/02/20 05:23:48;;;;;;;3.50;1.50;;;;;;;4.17;48.18;98545.27;231241;1229;138104;-59
2022/02/20 05:28:51;;;;;;;3.60;1.70;;;;;;;4.35;47.65;98529.19;231386;1228;138318;-57
2022/02/20 05:33:54;;;;;;;4.90;1.50;;;;;;;4.53;47.42;98510.62;231263;1227;138584;-60
2022/02/20 05:38:57;;;;;;;6.00;1.70;;;;;;;4.69;46.86;98494.09;231253;1229;138508;-57
2022/02/20 05:44:02;;;;;;;6.10;1.90;;;;;;;4.84;46.55;98485.45;231359;1229;138692;-61
2022/02/20 05:49:10;;;;;;;4.70;1.70;;;;;;;4.94;46.14;98483.08;231243;1228;140521;-59
2022/02/20 05:54:27;;;;;;;5.80;1.80;;;;;;;5.01;45.82;98470.23;231266;1229;138244;-60
2022/02/20 05:59:31;;;;;;;3.70;1.60;;;;;;;5.05;45.61;98461.27;231304;1230;138458;-56
2022/02/20 06:04:35;;;;;;;4.50;1.60;;;;;;;5.10;45.34;98453.79;231235;1228;140243;-59
2022/02/20 06:10:06;;;;;;;2.90;1.40;;;;;;;5.16;45.07;98449.10;231278;1228;140058;-59
2022/02/20 06:15:27;;;;;;;5.70;1.60;;;;;;;5.20;44.70;98444.67;231306;1229;138607;-58
2022/02/20 06:20:48;;;;;;;4.30;1.60;;;;;;;5.25;44.45;98441.99;231340;1228;138755;-60
2022/02/20 06:25:54;;;;;;;;;;;;;;;5.30;44.29;98435.06;231313;1228;138494;-60
2022/02/20 06:31:01;;;;;;;4.60;1.40;;;;;;;5.30;44.14;98429.95;231282;1228;125075;-62
2022/02/20 06:36:07;;;;;;;5.20;1.90;;;;;;;5.32;44.02;98421.95;231278;1228;139109;-61
2022/02/20 06:41:13;;;;;;;4.30;1.60;;;;;;;5.38;44.02;98415.98;231373;1229;140077;-60
2022/02/20 06:46:21;;;;;;;29.40;19.20;;;;;;;5.50;44.22;98412.73;231286;1228;139224;-60
2022/02/20 06:51:43;;;;;;;5.30;1.70;;;;;;;5.64;43.97;98407.45;231288;1228;138884;-60
2022/02/20 06:57:06;;;;;;;4.50;1.70;;;;;;;5.63;43.74;98407.45;231296;1228;139706;-56
2022/02/20 07:02:09;;;;;;;5.70;1.70;;;;;;;5.69;43.74;98421.26;231112;1229;139971;-59
2022/02/20 07:07:12;;;;;;;4.60;1.70;;;;;;;5.80;43.85;98418.77;231421;1228;140217;-59
2022/02/20 07:12:15;;;;;;;14.20;4.90;;;;;;;5.96;44.04;98434.11;231284;1229;139435;-59
2022/02/20 07:17:19;;;;;;;3.40;1.60;;;;;;;6.17;44.20;98428.27;231391;1229;139502;-60
2022/02/20 07:22:22;;;;;;;4.10;1.70;;;;;;;6.29;44.27;98435.66;231301;1229;138090;-60
2022/02/20 07:27:26;;;;;;;9.40;4.30;;;;;;;6.39;44.62;98445.54;231328;1229;137999;-58
2022/02/20 07:32:29;;;;;;;11.70;2.40;;;;;;;6.44;44.97;98456.52;231303;1228;139217;-59
2022/02/20 07:37:32;;;;;;;6.60;2.10;;;;;;;6.39;45.38;98458.20;231322;1228;139354;-58
2022/02/20 07:42:34;;;;;;;5.30;1.50;;;;;;;6.29;46.11;98465.12;231232;1228;138900;-59
2022/02/20 07:47:47;;;;;;;4.10;1.50;;;;;;;6.22;46.77;98464.66;231249;1228;138994;-60
2022/02/20 07:52:51;;;;;;;6.50;1.70;;;;;;;6.17;47.32;98471.05;231384;1228;138005;-59
2022/02/20 07:57:54;;;;;;;5.00;1.70;;;;;;;6.12;47.64;98475.88;231265;1228;139035;-61
2022/02/20 08:02:58;;;;;;;4.90;1.70;;;;;;;6.03;48.28;98464.40;231345;1229;138586;-57
2022/02/20 08:08:01;;;;;;;48.70;28.70;;;;;;;5.91;48.95;98468.00;231444;1228;138626;-59
2022/02/20 08:13:05;;;;;;;3.80;2.00;;;;;;;5.82;49.88;98474.79;231258;1228;138964;-59
2022/02/20 08:18:08;;;;;;;4.40;1.60;;;;;;;5.67;50.48;98475.90;231280;1228;231053;-60
2022/02/20 08:23:12;;;;;;;68.80;37.60;;;;;;;5.55;51.28;98477.21;231377;1228;140951;-60
2022/02/20 08:28:15;;;;;;;5.50;2.30;;;;;;;5.47;51.91;98493.82;231239;1229;138613;-58
2022/02/20 08:33:22;;;;;;;3.30;1.40;;;;;;;5.37;52.59;98489.23;231233;1229;138452;-57
2022/02/20 08:38:45;;;;;;;29.10;9.40;;;;;;;5.28;53.24;98492.48;231258;1229;139226;-59
2022/02/20 08:43:48;;;;;;;7.80;3.00;;;;;;;5.22;53.64;98498.76;231273;1229;139005;-59
2022/02/20 08:48:51;;;;;;;3.40;1.60;;;;;;;5.18;53.95;98499.08;231152;1229;140684;-59
2022/02/20 08:53:54;;;;;;;3.30;1.70;;;;;;;5.16;54.36;98491.48;231302;1229;138367;-58
2022/02/20 08:59:01;;;;;;;2.70;1.50;;;;;;;5.15;54.87;98500.16;231381;1229;138182;-57
2022/02/20 09:04:04;;;;;;;2.10;1.50;;;;;;;5.17;55.12;98498.82;231311;1228;138773;-61
2022/02/20 09:09:07;;;;;;;4.20;1.70;;;;;;;5.30;55.43;98495.91;231261;1228;139079;-58
2022/02/20 09:14:10;;;;;;;3.30;1.70;;;;;;;5.42;55.61;98497.40;231179;1229;138979;-59
2022/02/20 09:19:14;;;;;;;3.50;1.60;;;;;;;5.53;55.82;98498.28;231281;1229;138515;-59
2022/02/20 09:24:17;;;;;;;2.80;1.40;;;;;;;5.54;55.89;98504.90;231247;1229;139218;-58
2022/02/20 09:29:20;;;;;;;2.90;1.50;;;;;;;5.45;56.10;98512.02;231467;1228;138224;-58
2022/02/20 09:34:23;;;;;;;21.00;8.20;;;;;;;5.38;56.79;98504.30;231229;1229;139041;-58
2022/02/20 09:39:26;;;;;;;5.70;2.60;;;;;;;5.39;57.08;98498.44;231275;1228;139299;-59
2022/02/20 09:44:29;;;;;;;5.50;2.30;;;;;;;5.36;57.30;98502.45;231228;1228;138930;-58
2022/02/20 09:49:33;;;;;;;3.10;1.90;;;;;;;5.29;57.85;98504.73;231286;1228;138335;-59
2022/02/20 09:54:36;;;;;;;2.70;1.90;;;;;;;5.20;58.06;98504.30;231031;1229;139014;-60
2022/02/20 09:59:39;;;;;;;4.80;2.00;;;;;;;5.13;58.45;98504.96;231259;1228;138441;-61
2022/02/20 10:04:45;;;;;;;3.10;2.10;;;;;;;5.10;58.81;98506.38;231313;1229;138312;-60
2022/02/20 10:09:48;;;;;;;;;;;;;;;5.03;59.10;98498.09;231296;1227;139008;-60
2022/02/20 10:14:52;;;;;;;5.20;2.20;;;;;;;5.03;59.52;98498.11;231294;1229;124952;-60
2022/02/20 10:19:58;;;;;;;4.40;2.30;;;;;;;5.08;59.88;98495.95;231205;1228;138602;-58
2022/02/20 10:25:21;;;;;;;7.00;4.00;;;;;;;5.11;60.16;98497.00;231259;1228;138473;-60
2022/02/20 10:30:43;;;;;;;7.30;2.80;;;;;;;5.21;60.23;98501.08;231163;1229;138774;-60
2022/02/20 10:35:49;;;;;;;5.10;2.90;;;;;;;5.24;60.22;98496.21;231285;1229;138508;-60
2022/02/20 10:40:54;;;;;;;6.20;2.90;;;;;;;5.26;60.37;98500.48;231449;1229;139491;-61
2022/02/20 10:46:15;;;;;;;5.90;2.50;;;;;;;5.35;60.48;98502.34;231258;1229;138760;-60
2022/02/20 10:51:20;;;;;;;6.10;3.00;;;;;;;5.43;60.61;98503.33;231205;1228;138671;-60
2022/02/20 10:56:39;;;;;;;6.70;3.20;;;;;;;5.53;60.65;98500.02;231129;1228;138491;-60
2022/02/20 11:01:42;;;;;;;5.50;3.00;;;;;;;5.65;60.56;98493.09;231093;1229;139799;-60
2022/02/20 11:06:49;;;;;;;5.80;3.20;;;;;;;5.81;60.55;98488.23;231332;1228;138896;-59
2022/02/20 11:11:53;;;;;;;5.20;2.70;;;;;;;5.98;60.61;98487.16;231270;1229;138522;-61
2022/02/20 11:16:58;;;;;;;139.80;89.30;;;;;;;6.12;59.94;98481.00;231324;1229;137970;-60
2022/02/20 11:22:03;;;;;;;10.80;6.40;;;;;;;6.26;60.51;98478.63;231291;1228;142304;-61
2022/02/20 11:27:11;;;;;;;13.40;4.10;;;;;;;6.34;60.11;98480.17;231297;1228;138546;-62
2022/02/20 11:32:15;;;;;;;7.30;3.30;;;;;;;6.29;59.72;98488.20;231286;1229;139277;-62
2022/02/20 11:37:18;;;;;;;4.50;2.80;;;;;;;6.26;59.69;98491.33;231293;1230;138016;-61
2022/02/20 11:42:21;;;;;;;6.50;2.90;;;;;;;6.25;59.74;98493.00;231298;1228;138054;-62
2022/02/20 11:47:44;;;;;;;3.90;2.20;;;;;;;6.25;59.85;98490.13;231380;1230;139350;-62
2022/02/20 11:52:51;;;;;;;4.10;2.00;;;;;;;6.44;59.72;98481.55;231192;1229;138579;-62
2022/02/20 11:58:22;;;;;;;4.80;2.50;;;;;;;6.66;59.39;98479.32;231187;1229;139185;-61
2022/02/20 12:03:30;;;;;;;5.00;2.30;;;;;;;6.85;59.07;98482.30;231334;1229;139175;-62
2022/02/20 12:08:35;;;;;;;5.90;2.80;;;;;;;7.00;58.86;98473.34;231281;1230;138918;-58
2022/02/20 12:13:50;;;;;;;4.20;2.10;;;;;;;7.10;58.28;98469.26;231309;1227;138772;-61
2022/02/20 12:19:14;;;;;;;5.10;2.40;;;;;;;7.16;58.12;98469.48;231240;1229;138180;-62
2022/02/20 12:24:20;;;;;;;6.20;2.30;;;;;;;7.24;58.08;98473.05;231325;1229;139276;-63
2022/02/20 12:29:32;;;;;;;5.30;2.70;;;;;;;7.33;57.88;98472.14;231424;1229;138644;-62
2022/02/20 12:34:55;;;;;;;5.40;2.50;;;;;;;7.46;57.71;98457.84;231290;1229;138572;-62
2022/02/20 12:40:24;;;;;;;6.50;2.50;;;;;;;7.60;57.64;98455.60;231294;1230;139738;-61
2022/02/20 12:45:33;;;;;;;6.00;2.70;;;;;;;7.82;57.70;98450.88;231278;1229;138490;-62
2022/02/20 12:50:41;;;;;;;5.50;2.40;;;;;;;7.94;56.93;98445.46;231294;1228;139227;-61
2022/02/20 12:55:44;;;;;;;5.20;2.50;;;;;;;7.98;56.81;98444.66;231237;1229;138881;-59
2022/02/20 13:00:48;;;;;;;8.50;2.20;;;;;;;8.10;57.20;98443.90;231341;1229;138664;-60
2022/02/20 13:05:54;;;;;;;6.10;2.60;;;;;;;8.42;56.97;98439.13;231381;1228;138696;-61
2022/02/20 13:10:57;;;;;;;8.10;2.50;;;;;;;8.87;56.45;98437.84;231452;1229;138642;-60
2022/02/20 13:16:03;;;;;;;5.10;2.20;;;;;;;9.19;56.13;98427.61;231400;1228;139763;-61
2022/02/20 13:21:08;;;;;;;6.00;2.20;;;;;;;9.34;55.30;98431.07;231309;1228;138590;-62
2022/02/20 13:26:20;;;;;;;10.00;2.80;;;;;;;9.27;54.34;98431.00;231298;1229;138581;-62
2022/02/20 13:31:37;;;;;;;6.50;2.20;;;;;;;9.19;54.13;98423.21;231339;1229;139271;-61
2022/02/20 13:36:40;;;;;;;7.30;2.20;;;;;;;9.04;53.94;98424.02;231260;1230;139214;-63
2022/02/20 13:41:50;;;;;;;5.20;2.60;;;;;;;9.02;53.97;98425.71;231428;1229;139687;-60
2022/02/20 13:47:04;;;;;;;5.30;2.20;;;;;;;9.17;54.30;98421.34;231311;1230;138832;-61
2022/02/20 13:52:07;;;;;;;5.00;2.10;;;;;;;9.13;53.46;98414.17;231383;1228;138452;-60
2022/02/20 13:57:24;;;;;;;7.40;2.20;;;;;;;9.11;53.28;98419.85;231307;1228;138425;-61
2022/02/20 14:02:33;;;;;;;7.90;2.50;;;;;;;9.08;53.09;98409.73;231185;1229;138578;-61
2022/02/20 14:07:40;;;;;;;6.10;2.10;;;;;;;9.12;52.66;98406.09;231245;1229;138669;-60
2022/02/20 14:12:45;;;;;;;6.20;2.20;;;;;;;9.16;52.66;98413.32;231309;1229;138379;-61
2022/02/20 14:18:02;;;;;;;7.90;2.50;;;;;;;9.14;52.63;98401.04;231348;1229;138977;-61
2022/02/20 14:23:15;;;;;;;6.50;2.00;;;;;;;9.17;52.38;98396.95;231395;1230;138603;-61
2022/02/20 14:28:28;;;;;;;4.70;2.00;;;;;;;9.14;52.21;98398.23;231184;1230;139645;-60
2022/02/20 14:33:34;;;;;;;44.00;29.90;;;;;;;9.12;51.86;98393.04;231245;1230;139239;-61
2022/02/20 14:38:39;;;;;;;5.80;2.50;;;;;;;9.12;52.28;98395.85;231237;1229;140737;-61
2022/02/20 14:43:44;;;;;;;8.00;2.50;;;;;;;9.05;51.75;98381.67;231124;1230;138497;-60
2022/02/20 14:48:51;;;;;;;5.50;2.10;;;;;;;9.01;51.72;98380.88;231144;1229;138470;-62
2022/02/20 14:53:58;;;;;;;4.10;2.00;;;;;;;9.00;51.85;98381.44;231401;1230;138570;-62
2022/02/20 14:59:02;;;;;;;4.50;1.80;;;;;;;9.05;51.27;98381.30;231180;1228;138351;-62
2022/02/20 15:04:06;;;;;;;6.20;2.20;;;;;;;9.07;51.04;98378.15;231274;1228;139578;-62
2022/02/20 15:09:09;;;;;;;5.10;2.10;;;;;;;9.11;51.22;98373.48;231252;1230;139017;-62
2022/02/20 15:14:12;;;;;;;5.80;1.90;;;;;;;9.11;50.83;98376.67;231256;1230;139854;-62
2022/02/20 15:19:15;;;;;;;6.10;1.90;;;;;;;9.06;50.82;98374.69;231314;1229;138045;-61
2022/02/20 15:24:19;;;;;;;7.30;2.90;;;;;;;9.03;50.69;98384.42;231280;1229;138640;-61
2022/02/20 15:29:21;;;;;;;6.20;2.20;;;;;;;9.02;50.32;98389.81;231375;1229;138688;-61
2022/02/20 15:34:25;;;;;;;4.30;2.20;;;;;;;9.01;50.38;98385.64;231159;1230;138358;-61
2022/02/20 15:39:28;;;;;;;86.40;54.20;;;;;;;8.99;50.42;98385.73;231179;1229;137968;-63
2022/02/20 15:44:31;;;;;;;11.70;4.50;;;;;;;9.05;50.62;98376.32;231238;1230;138494;-62
2022/02/20 15:49:34;;;;;;;4.40;2.10;;;;;;;9.04;50.06;98371.29;231351;1229;138562;-61
2022/02/20 15:54:37;;;;;;;5.30;1.60;;;;;;;8.99;49.80;98376.05;231393;1229;139252;-61
2022/02/20 15:59:40;;;;;;;4.90;1.70;;;;;;;8.95;49.68;98374.52;231419;1230;138815;-60
2022/02/20 16:04:43;;;;;;;6.00;2.10;;;;;;;8.88;49.55;98373.73;231299;1229;138508;-60
2022/02/20 16:09:46;;;;;;;6.40;1.80;;;;;;;8.81;49.45;98366.96;231255;1229;141049;-60
2022/02/20 16:14:49;;;;;;;5.10;1.80;;;;;;;8.75;49.18;98355.12;231282;1228;139067;-61
2022/02/20 16:19:53;;;;;;;5.50;2.50;;;;;;;8.73;49.31;98347.64;231186;1229;139242;-62
2022/02/20 16:24:56;;;;;;;7.00;1.90;;;;;;;8.67;49.21;98350.19;231283;1228;139642;-61
2022/02/20 16:29:59;;;;;;;5.50;2.10;;;;;;;8.61;49.28;98346.66;231357;1229;139043;-60
2022/02/20 16:35:02;;;;;;;6.20;2.20;;;;;;;8.57;49.09;98343.06;231300;1230;138470;-61
2022/02/20 16:40:06;;;;;;;13.30;7.00;;;;;;;8.58;49.49;98340.50;231282;1229;138460;-62
2022/02/20 16:45:10;;;;;;;6.90;2.80;;;;;;;8.65;49.13;98343.40;231134;1228;138639;-63
2022/02/20 16:50:15;;;;;;;7.20;2.50;;;;;;;8.58;48.86;98340.33;231170;1229;138618;-62
2022/02/20 16:55:18;;;;;;;7.40;2.40;;;;;;;8.53;48.96;98331.09;231153;1229;139859;-61
2022/02/20 17:00:20;;;;;;;7.50;2.60;;;;;;;8.48;48.98;98335.33;231340;1230;138666;-61
2022/02/20 17:05:24;;;;;;;5.70;2.80;;;;;;;8.43;48.97;98329.31;231481;1228;138442;-61
2022/02/20 17:10:27;;;;;;;11.30;4.30;;;;;;;8.38;49.36;98325.70;231251;1229;138690;-62
2022/02/20 17:15:30;;;;;;;11.40;4.00;;;;;;;8.36;49.59;98328.13;231300;1228;138914;-61
2022/02/20 17:20:33;;;;;;;9.80;4.30;;;;;;;8.29;49.80;98327.70;231260;1229;139732;-60
2022/02/20 17:25:37;;;;;;;10.20;3.80;;;;;;;8.19;49.95;98325.17;231336;1230;139408;-61
2022/02/20 17:30:40;;;;;;;10.50;4.10;;;;;;;8.12;50.02;98334.98;231314;1229;139711;-60
2022/02/20 17:35:44;;;;;;;8.70;3.90;;;;;;;8.03;50.35;98338.33;231341;1229;139241;-60
2022/02/20 17:40:46;;;;;;;11.20;3.90;;;;;;;7.97;50.23;98334.11;231210;1229;138535;-62
2022/02/20 17:45:49;;;;;;;11.80;5.70;;;;;;;7.96;51.16;98335.98;231207;1228;138605;-63
2022/02/20 17:50:52;;;;;;;82.90;49.00;;;;;;;7.99;51.16;98335.79;230639;1229;138809;-59
2022/02/20 17:55:55;;;;;;;10.60;5.10;;;;;;;7.96;51.12;98334.90;231156;1230;139036;-63
2022/02/20 18:00:59;;;;;;;13.90;4.00;;;;;;;7.90;50.97;98338.65;231210;1228;138957;-60
2022/02/20 18:06:02;;;;;;;6.80;3.70;;;;;;;7.86;51.56;98324.21;231408;1228;138758;-61
2022/02/20 18:11:05;;;;;;;7.20;3.40;;;;;;;7.80;51.74;98331.09;231276;1229;138752;-63
2022/02/20 18:16:09;;;;;;;11.20;3.80;;;;;;;7.70;51.94;98317.78;230737;1229;138716;-60
2022/02/20 18:21:13;;;;;;;6.30;2.70;;;;;;;7.69;52.12;98314.70;231402;1228;139096;-63
2022/02/20 18:26:16;;;;;;;8.40;3.20;;;;;;;7.66;52.40;98308.87;231315;1228;138558;-62
2022/02/20 18:31:20;;;;;;;10.90;3.20;;;;;;;7.65;52.67;98300.83;231319;1228;138156;-59
2022/02/20 18:36:23;;;;;;;7.60;3.90;;;;;;;7.66;52.64;98302.70;231145;1228;138632;-60
2022/02/20 18:41:26;;;;;;;11.50;4.20;;;;;;;7.67;52.44;98298.93;231399;1229;138287;-61
2022/02/20 18:46:29;;;;;;;12.90;5.00;;;;;;;7.63;52.72;98296.74;231135;1229;138855;-62
2022/02/20 18:51:33;;;;;;;10.30;4.30;;;;;;;7.60;52.69;98292.11;231202;1228;138463;-59
2022/02/20 18:56:37;;;;;;;7.20;3.70;;;;;;;7.62;53.33;98281.25;231088;1229;138747;-61
2022/02/20 19:01:40;;;;;;;8.70;4.10;;;;;;;7.58;53.14;98281.98;231236;1228;138221;-60
2022/02/20 19:06:43;;;;;;;9.70;4.00;;;;;;;7.57;53.44;98279.41;231315;1229;139251;-59
2022/02/20 19:11:46;;;;;;;7.90;3.50;;;;;;;7.60;53.37;98273.42;231375;1229;138551;-61
2022/02/20 19:16:49;;;;;;;9.50;3.80;;;;;;;7.58;53.49;98269.81;231163;1229;138879;-62
2022/02/20 19:21:53;;;;;;;8.10;3.70;;;;;;;7.54;53.74;98266.51;231255;1229;139966;-63
2022/02/20 19:26:57;;;;;;;7.20;3.60;;;;;;;7.53;53.66;98264.15;231089;1228;138552;-62
2022/02/20 19:32:00;;;;;;;11.40;4.30;;;;;;;7.53;53.84;98264.84;231181;1229;139422;-66
2022/02/20 19:37:04;;;;;;;9.10;3.70;;;;;;;7.48;53.91;98263.77;231189;1229;138441;-65
2022/02/20 19:42:08;;;;;;;9.80;4.30;;;;;;;7.43;54.09;98255.73;231375;1229;139191;-63
2022/02/20 19:47:11;;;;;;;7.80;3.50;;;;;;;7.40;54.19;98251.70;231236;1229;139014;-63
2022/02/20 19:52:14;;;;;;;8.70;3.80;;;;;;;7.38;54.54;98248.52;231259;1228;139061;-59
2022/02/20 19:57:29;;;;;;;8.50;3.70;;;;;;;7.36;54.54;98240.67;231288;1229;138430;-63
2022/02/20 20:02:32;;;;;;;8.80;3.60;;;;;;;7.33;54.99;98239.56;231214;1228;138523;-63
2022/02/20 20:07:37;;;;;;;9.00;3.90;;;;;;;7.32;55.15;98236.14;231245;1228;138801;-64
2022/02/20 20:12:41;;;;;;;5.80;2.80;;;;;;;7.28;55.54;98234.80;230994;1228;138262;-62
2022/02/20 20:17:45;;;;;;;9.20;4.10;;;;;;;7.25;55.49;98230.60;231219;1228;138894;-59
2022/02/20 20:22:51;;;;;;;7.30;3.60;;;;;;;7.25;55.97;98215.41;231267;1229;139419;-60
2022/02/20 20:27:55;;;;;;;7.40;3.40;;;;;;;7.30;56.31;98208.39;231199;1229;139091;-59
2022/02/20 20:32:59;;;;;;;8.80;3.60;;;;;;;7.34;56.38;98204.80;230820;1228;138809;-57
2022/02/20 20:38:03;;;;;;;9.60;4.10;;;;;;;7.38;56.49;98195.55;231277;1228;138396;-65
2022/02/20 20:43:06;;;;;;;9.10;3.80;;;;;;;7.41;56.60;98192.38;231282;1228;138498;-63
2022/02/20 20:48:09;;;;;;;7.60;3.30;;;;;;;7.40;56.51;98187.69;231222;1229;138820;-67
2022/02/20 20:53:12;;;;;;;5.50;2.80;;;;;;;7.39;56.90;98181.00;231281;1228;138003;-64
2022/02/20 20:58:15;;;;;;;5.10;2.80;;;;;;;7.42;56.90;98181.52;231234;1228;138411;-65
2022/02/20 21:03:18;;;;;;;4.70;2.90;;;;;;;7.47;56.97;98172.94;231248;1228;138208;-66
2022/02/20 21:08:21;;;;;;;4.80;2.60;;;;;;;7.51;56.89;98175.33;231250;1229;138417;-64
2022/02/20 21:13:27;;;;;;;6.30;3.10;;;;;;;7.51;57.00;98165.77;230719;1228;138760;-62
2022/02/20 21:18:30;;;;;;;5.00;2.80;;;;;;;7.53;57.14;98163.89;231246;1229;138619;-64
2022/02/20 21:23:33;;;;;;;5.90;3.00;;;;;;;7.55;57.20;98154.39;231340;1229;138387;-61
2022/02/20 21:28:36;;;;;;;4.60;2.40;;;;;;;7.56;57.29;98143.41;231201;1228;139121;-65
2022/02/20 21:33:41;;;;;;;5.30;2.30;;;;;;;7.59;57.32;98137.20;231336;1228;137952;-61
2022/02/20 21:38:45;;;;;;;4.70;2.30;;;;;;;7.62;57.27;98119.73;231265;1229;141379;-61
2022/02/20 21:43:48;;;;;;;3.90;2.10;;;;;;;7.67;57.39;98113.93;230254;1230;139314;-61
2022/02/20 21:48:51;;;;;;;4.70;2.20;;;;;;;7.74;57.55;98108.53;231283;1228;139538;-61
2022/02/20 21:53:54;;;;;;;4.10;2.40;;;;;;;7.78;57.84;98101.54;231302;1228;138343;-60
2022/02/20 21:58:57;;;;;;;3.60;2.10;;;;;;;7.85;57.60;98095.09;231299;1229;138352;-60
2022/02/20 22:04:00;;;;;;;5.10;2.10;;;;;;;7.91;57.54;98087.11;231390;1228;138645;-61
2022/02/20 22:09:03;;;;;;;4.80;2.00;;;;;;;7.97;57.54;98081.55;231052;1228;139296;-66
2022/02/20 22:14:06;;;;;;;3.80;2.00;;;;;;;8.00;57.46;98072.14;231329;1228;139360;-65
2022/02/20 22:19:09;;;;;;;3.90;1.90;;;;;;;8.03;57.54;98062.75;231266;1229;139257;-63
2022/02/20 22:24:12;;;;;;;5.00;2.00;;;;;;;8.09;57.37;98045.26;231303;1229;139236;-63
2022/02/20 22:29:16;;;;;;;3.00;1.90;;;;;;;8.16;57.28;98039.98;231342;1229;138249;-64
2022/02/20 22:34:19;;;;;;;4.00;2.10;;;;;;;8.21;57.17;98012.99;231275;1229;138473;-62
2022/02/20 22:39:22;;;;;;;2.80;1.70;;;;;;;8.25;57.64;97995.39;231264;1228;139279;-62
2022/02/20 22:44:25;;;;;;;3.80;1.90;;;;;;;8.27;57.47;97980.21;231226;1228;138088;-61
2022/02/20 22:49:31;;;;;;;2.70;1.50;;;;;;;8.27;57.24;97966.22;231293;1229;139305;-62
2022/02/20 22:54:34;;;;;;;;;;;;;;;8.30;57.38;97954.04;230944;1229;138769;-63
2022/02/20 22:59:37;;;;;;;4.20;1.40;;;;;;;8.34;57.48;97951.33;231460;1229;124507;-64
2022/02/20 23:04:40;;;;;;;1.90;1.30;;;;;;;8.39;57.30;97946.95;231253;1229;137902;-59
2022/02/20 23:09:43;;;;;;;2.50;1.40;;;;;;;8.43;57.29;97942.60;231236;1229;138385;-61
2022/02/20 23:14:46;;;;;;;4.50;1.90;;;;;;;8.45;57.13;97933.56;231211;1229;138794;-62
2022/02/20 23:19:49;;;;;;;1.90;1.00;;;;;;;8.46;57.09;97923.75;231254;1229;139720;-61
2022/02/20 23:24:52;;;;;;;4.40;1.20;;;;;;;8.49;57.01;97918.77;231305;1229;138416;-60
2022/02/20 23:29:55;;;;;;;4.70;1.30;;;;;;;8.53;57.03;97900.50;231371;1229;139124;-60
2022/02/20 23:35:12;;;;;;;2.20;1.10;;;;;;;8.53;56.97;97884.20;231236;1229;138884;-60